Time;durP1;ratioP1;P1;durP2;ratioP2;P2;SDS_P1;SDS_P2;PMS_P1;PMS_P2;Temp;Humidity;BMP_temperature;BMP_pressure;BME280_temperature;BME280_humidity;BME280_pressure;Samples;Min_cycle;Max_cycle;Signal;HPM_P1;HPM_P2
2022/08/19 00:00:13;;;;;;;17.83;9.50;;;;;;;22.62;86.30;100504.72;2064670;28;20042;-66
2022/08/19 00:01:18;;;;;;;19.60;9.35;;;;;;;22.66;86.38;100503.63;2067578;28;20042;-67
2022/08/19 00:02:20;;;;;;;15.90;9.15;;;;;;;22.69;86.45;100496.66;2077935;28;20049;-67
2022/08/19 00:03:22;;;;;;;19.23;10.13;;;;;;;22.68;86.56;100504.06;2072591;28;20037;-67
2022/08/19 00:04:35;;;;;;;19.45;9.65;;;;;;;22.66;86.59;100513.81;2073599;28;20096;-67
2022/08/19 00:05:37;;;;;;;12.57;9.15;;;;;;;22.65;86.76;100507.53;2073314;28;20033;-67
2022/08/19 00:06:43;;;;;;;16.90;9.50;;;;;;;22.67;86.75;100507.97;2072779;28;20068;-67
2022/08/19 00:07:46;;;;;;;14.68;9.18;;;;;;;22.69;86.79;100513.09;2073559;28;20551;-67
2022/08/19 00:08:54;;;;;;;18.15;9.52;;;;;;;22.68;86.96;100508.78;2081108;28;20037;-66
2022/08/19 00:10:00;;;;;;;15.68;9.75;;;;;;;22.67;86.89;100509.94;2072421;28;20398;-67
2022/08/19 00:11:05;;;;;;;18.77;9.02;;;;;;;22.64;86.84;100505.97;2069698;28;20509;-66
2022/08/19 00:12:11;;;;;;;13.27;9.25;;;;;;;22.62;86.89;100502.00;2073265;28;20041;-67
2022/08/19 00:13:14;;;;;;;20.25;9.35;;;;;;;22.61;87.11;100500.41;2073613;28;20034;-67
2022/08/19 00:14:20;;;;;;;14.40;9.27;;;;;;;22.60;86.95;100499.63;2073118;28;20478;-67
2022/08/19 00:15:25;;;;;;;14.40;9.37;;;;;;;22.58;86.99;100499.19;2073701;28;20037;-67
2022/08/19 00:16:29;;;;;;;16.40;9.02;;;;;;;22.56;87.06;100490.53;2080582;28;20672;-67
2022/08/19 00:17:33;;;;;;;13.60;9.75;;;;;;;22.54;87.02;100489.28;2064608;28;20051;-67
2022/08/19 00:18:35;;;;;;;15.60;9.57;;;;;;;22.54;87.05;100489.28;2065756;28;20125;-67
2022/08/19 00:19:40;;;;;;;14.52;9.77;;;;;;;22.53;87.05;100493.97;2089139;28;20045;-67
2022/08/19 00:20:47;;;;;;;14.60;9.48;;;;;;;22.49;87.11;100484.91;2080895;28;20517;-68
2022/08/19 00:21:49;;;;;;;17.75;9.50;;;;;;;22.48;87.45;100488.00;2065513;28;20282;-68
2022/08/19 00:22:55;;;;;;;17.80;9.52;;;;;;;22.43;87.52;100495.34;2057493;28;20038;-68
2022/08/19 00:24:03;;;;;;;14.95;9.40;;;;;;;22.44;87.66;100485.97;2082592;28;20404;-68
2022/08/19 00:25:09;;;;;;;14.90;10.13;;;;;;;22.46;87.76;100493.06;2080118;28;20056;-68
2022/08/19 00:26:16;;;;;;;16.67;10.15;;;;;;;22.46;87.78;100499.34;2073649;28;20033;-68
2022/08/19 00:27:18;;;;;;;15.23;10.05;;;;;;;22.44;87.82;100491.47;2089176;28;20040;-68
2022/08/19 00:28:22;;;;;;;13.15;9.35;;;;;;;22.46;87.73;100502.06;2096893;28;20032;-68
2022/08/19 00:29:32;;;;;;;14.85;9.75;;;;;;;22.47;87.64;100506.38;2087762;28;20125;-68
2022/08/19 00:30:37;;;;;;;14.85;9.68;;;;;;;22.51;87.71;100496.31;2081447;28;20060;-68
2022/08/19 00:31:41;;;;;;;14.57;9.65;;;;;;;22.52;87.76;100497.88;2080809;28;20041;-68
2022/08/19 00:32:51;;;;;;;16.63;10.02;;;;;;;22.50;87.86;100505.66;2080818;28;20037;-68
2022/08/19 00:33:55;;;;;;;14.55;9.15;;;;;;;22.51;87.87;100506.44;2080897;28;20495;-68
2022/08/19 00:34:59;;;;;;;13.68;9.18;;;;;;;22.49;87.91;100503.31;2072307;28;20061;-67
2022/08/19 00:36:06;;;;;;;16.40;9.55;;;;;;;22.49;87.94;100506.03;2072566;28;20065;-67
2022/08/19 00:37:08;;;;;;;15.50;9.60;;;;;;;22.48;88.19;100507.16;2080964;28;20104;-66
2022/08/19 00:38:15;;;;;;;16.20;9.52;;;;;;;22.49;88.13;100509.56;2084563;28;20405;-68
2022/08/19 00:39:19;;;;;;;13.52;9.15;;;;;;;22.48;88.28;100507.16;2080447;28;20037;-67
2022/08/19 00:40:24;;;;;;;13.38;9.90;;;;;;;22.49;88.27;100506.81;2080622;28;20577;-67
2022/08/19 00:41:26;;;;;;;18.58;9.57;;;;;;;22.49;88.40;100503.31;2080009;28;20432;-67
2022/08/19 00:42:28;;;;;;;16.77;9.35;;;;;;;22.46;88.40;100514.97;2080747;28;20033;-67
2022/08/19 00:43:30;;;;;;;15.13;9.60;;;;;;;22.42;88.36;100515.69;2072643;28;20053;-67
2022/08/19 00:44:38;;;;;;;14.95;9.27;;;;;;;22.45;88.42;100514.19;2080457;28;20060;-66
2022/08/19 00:45:45;;;;;;;19.17;9.50;;;;;;;22.42;88.40;100515.69;2072537;28;20030;-67
2022/08/19 00:46:49;;;;;;;19.25;10.55;;;;;;;22.43;88.35;100517.28;2081667;28;20048;-67
2022/08/19 00:47:57;;;;;;;15.65;9.75;;;;;;;22.41;88.15;100519.59;2088243;28;20032;-67
2022/08/19 00:49:08;;;;;;;13.18;9.13;;;;;;;22.41;88.27;100518.78;2080160;28;20037;-67
2022/08/19 00:50:12;;;;;;;19.98;10.30;;;;;;;22.40;88.10;100512.50;2072470;28;20049;-67
2022/08/19 00:51:18;;;;;;;17.80;11.05;;;;;;;22.40;88.10;100518.00;2064967;28;20038;-67
2022/08/19 00:52:29;;;;;;;19.17;10.60;;;;;;;22.42;88.16;100515.69;2072530;28;20041;-67
2022/08/19 00:53:34;;;;;;;20.13;10.45;;;;;;;22.47;88.29;100522.81;2082240;28;20045;-68
2022/08/19 00:54:42;;;;;;;18.02;10.20;;;;;;;22.50;88.25;100516.63;2087636;28;20502;-68
2022/08/19 00:55:50;;;;;;;16.23;10.38;;;;;;;22.53;88.31;100513.16;2063376;28;20049;-67
2022/08/19 00:56:54;;;;;;;18.60;10.57;;;;;;;22.55;88.34;100513.59;2066724;28;20034;-67
2022/08/19 00:58:08;;;;;;;15.27;10.02;;;;;;;22.55;88.46;100513.59;2079584;28;20037;-68
2022/08/19 00:59:13;;;;;;;17.30;10.35;;;;;;;22.55;88.18;100519.09;2064389;28;20050;-68
2022/08/19 01:00:18;;;;;;;14.25;9.77;;;;;;;22.53;88.07;100520.59;2072587;28;20046;-67
2022/08/19 01:01:20;;;;;;;16.77;9.70;;;;;;;22.53;88.22;100520.59;2080732;28;20041;-68
2022/08/19 01:02:22;;;;;;;17.20;9.85;;;;;;;22.55;88.16;100529.25;2080693;28;20045;-67
2022/08/19 01:03:27;;;;;;;15.02;9.93;;;;;;;22.54;88.17;100519.44;2071850;28;20041;-68
2022/08/19 01:04:32;;;;;;;16.17;10.05;;;;;;;22.52;88.05;100514.31;2072315;28;20076;-68
2022/08/19 01:05:36;;;;;;;14.68;9.25;;;;;;;22.49;88.06;100519.75;2073303;28;20061;-68
2022/08/19 01:06:41;;;;;;;15.23;9.55;;;;;;;22.46;88.05;100521.25;2080250;28;20048;-68
2022/08/19 01:07:44;;;;;;;16.38;9.70;;;;;;;22.48;88.06;100524.44;2072373;28;20038;-67
2022/08/19 01:08:46;;;;;;;21.52;11.00;;;;;;;22.46;88.04;100520.47;2072566;28;20037;-68
2022/08/19 01:09:54;;;;;;;16.38;9.70;;;;;;;22.44;87.94;100520.81;2071701;28;20034;-67
2022/08/19 01:11:00;;;;;;;22.75;9.70;;;;;;;22.43;87.97;100522.75;2078096;28;20072;-68
2022/08/19 01:12:12;;;;;;;18.15;10.07;;;;;;;22.42;87.86;100525.88;2093081;28;20045;-67
2022/08/19 01:13:22;;;;;;;19.85;10.52;;;;;;;22.41;87.81;100525.06;2080500;28;20490;-67
2022/08/19 01:14:25;;;;;;;15.98;10.95;;;;;;;22.40;87.92;100525.41;2072713;28;20489;-67
2022/08/19 01:15:44;;;;;;;14.70;10.65;;;;;;;22.36;88.02;100516.34;2072297;28;20030;-66
2022/08/19 01:16:56;;;;;;;19.27;10.80;;;;;;;22.35;88.20;100520.22;2080559;28;20048;-67
2022/08/19 01:18:04;;;;;;;19.50;10.57;;;;;;;22.36;88.21;100522.63;2078845;28;20052;-67
2022/08/19 01:19:33;;;;;;;22.58;11.27;;;;;;;22.37;88.28;100524.19;2079864;28;20045;-67
2022/08/19 01:20:35;;;;;;;17.70;10.75;;;;;;;22.36;88.28;100524.56;2077036;28;20481;-67
2022/08/19 01:21:46;;;;;;;19.63;10.57;;;;;;;22.36;88.27;100522.63;2072433;28;20038;-67
2022/08/19 01:22:53;;;;;;;17.77;9.80;;;;;;;22.36;88.42;100521.81;2073450;28;20041;-67
2022/08/19 01:23:56;;;;;;;13.75;10.07;;;;;;;22.38;88.48;100514.03;2076623;28;20053;-68
2022/08/19 01:24:58;;;;;;;18.48;10.80;;;;;;;22.36;88.44;100517.13;2064099;28;20061;-67
2022/08/19 01:26:02;;;;;;;25.45;11.40;;;;;;;22.36;88.27;100519.88;2072477;28;20060;-67
2022/08/19 01:27:05;;;;;;;17.92;10.82;;;;;;;22.36;88.33;100519.88;2088271;28;20500;-67
2022/08/19 01:28:07;;;;;;;18.90;10.30;;;;;;;22.38;88.31;100514.84;2088664;28;20045;-66
2022/08/19 01:29:14;;;;;;;18.02;10.18;;;;;;;22.40;88.44;100517.19;2079224;28;20045;-66
2022/08/19 01:30:27;;;;;;;15.68;11.43;;;;;;;22.41;88.28;100519.59;2072273;28;20038;-67
2022/08/19 01:31:32;;;;;;;15.63;10.30;;;;;;;22.43;88.49;100521.97;2072842;28;20042;-68
2022/08/19 01:32:34;;;;;;;16.88;10.43;;;;;;;22.45;88.53;100514.19;2064088;28;20054;-67
2022/08/19 01:33:41;;;;;;;14.75;10.45;;;;;;;22.45;88.59;100519.66;2064347;28;20125;-68
2022/08/19 01:34:46;;;;;;;18.60;10.68;;;;;;;22.46;88.70;100510.28;2074797;28;20105;-67
2022/08/19 01:35:52;;;;;;;17.65;10.85;;;;;;;22.47;88.80;100516.56;2080344;28;20033;-67
2022/08/19 01:36:54;;;;;;;22.40;10.75;;;;;;;22.48;88.79;100513.47;2066856;28;20042;-67
2022/08/19 01:38:07;;;;;;;24.60;10.98;;;;;;;22.49;88.85;100514.25;2070424;28;20042;-68
2022/08/19 01:39:14;;;;;;;17.63;11.88;;;;;;;22.49;88.77;100519.75;2072237;28;20041;-67
2022/08/19 01:40:22;;;;;;;15.90;10.32;;;;;;;22.49;88.93;100515.06;2081409;28;20041;-67
2022/08/19 01:41:24;;;;;;;16.17;10.32;;;;;;;22.51;88.86;100511.94;2080273;28;20037;-67
2022/08/19 01:42:26;;;;;;;16.25;11.65;;;;;;;22.51;88.94;100514.69;2072066;28;20485;-67
2022/08/19 01:43:35;;;;;;;17.90;10.88;;;;;;;22.48;88.79;100508.00;2079556;28;20052;-67
2022/08/19 01:44:40;;;;;;;20.08;11.68;;;;;;;22.49;88.88;100508.78;2080272;28;20049;-67
2022/08/19 01:45:50;;;;;;;17.05;11.20;;;;;;;22.49;88.79;100515.06;2080255;28;20041;-67
2022/08/19 01:46:52;;;;;;;24.23;10.93;;;;;;;22.51;88.82;100522.88;2072145;28;20109;-68
2022/08/19 01:47:57;;;;;;;23.52;10.70;;;;;;;22.49;88.75;100509.56;2072191;28;20052;-67
2022/08/19 01:49:04;;;;;;;20.77;11.52;;;;;;;22.50;88.71;100516.63;2079975;28;20057;-67
2022/08/19 01:50:09;;;;;;;20.88;10.73;;;;;;;22.50;88.71;100516.63;2080054;28;20429;-67
2022/08/19 01:51:14;;;;;;;21.13;11.48;;;;;;;22.50;88.80;100513.88;2096749;28;20044;-66
2022/08/19 01:52:21;;;;;;;21.33;11.45;;;;;;;22.50;88.75;100515.84;2087090;28;20064;-68
2022/08/19 01:53:23;;;;;;;21.80;11.52;;;;;;;22.52;88.75;100519.03;2080271;28;20037;-67
2022/08/19 01:54:25;;;;;;;24.98;10.85;;;;;;;22.51;88.64;100517.41;2071699;28;20041;-67
2022/08/19 01:55:32;;;;;;;20.80;10.90;;;;;;;22.49;88.60;100517.00;2064777;28;20522;-67
2022/08/19 01:56:38;;;;;;;26.83;11.48;;;;;;;22.49;88.68;100522.47;2072367;28;20050;-67
2022/08/19 01:57:48;;;;;;;25.77;11.80;;;;;;;22.50;88.55;100516.63;2080641;28;20816;-67
2022/08/19 01:58:58;;;;;;;23.40;11.70;;;;;;;22.50;88.51;100515.84;2087840;28;20052;-67
2022/08/19 02:00:04;;;;;;;21.95;11.23;;;;;;;22.49;88.52;100517.00;2071932;28;20033;-67
2022/08/19 02:01:13;;;;;;;27.73;11.35;;;;;;;22.49;88.67;100523.25;2073700;28;20045;-67
2022/08/19 02:02:20;;;;;;;18.40;10.70;;;;;;;22.49;88.78;100519.75;2080818;28;20048;-67
2022/08/19 02:03:28;;;;;;;21.38;10.93;;;;;;;22.47;88.87;100520.09;2074614;28;20521;-67
2022/08/19 02:04:30;;;;;;;24.10;12.32;;;;;;;22.49;88.84;100519.75;2072657;28;20049;-67
2022/08/19 02:05:32;;;;;;;20.23;10.63;;;;;;;22.48;88.92;100518.13;2072032;28;20042;-68
2022/08/19 02:06:41;;;;;;;20.00;11.10;;;;;;;22.48;88.84;100518.13;2072580;28;20041;-68
2022/08/19 02:07:44;;;;;;;25.15;11.48;;;;;;;22.47;88.78;100520.09;2080903;28;20036;-68
2022/08/19 02:08:47;;;;;;;20.58;10.95;;;;;;;22.47;88.90;100519.28;2080040;28;20041;-67
2022/08/19 02:09:51;;;;;;;23.98;12.27;;;;;;;22.47;88.99;100516.56;2072065;28;20469;-67
2022/08/19 02:10:58;;;;;;;17.80;11.55;;;;;;;22.47;88.78;100528.31;2072793;28;20037;-68
2022/08/19 02:12:00;;;;;;;28.35;13.02;;;;;;;22.48;88.85;100523.63;2077328;28;20033;-68
2022/08/19 02:13:05;;;;;;;23.90;14.35;;;;;;;22.50;88.84;100521.31;2071725;28;20038;-67
2022/08/19 02:14:07;;;;;;;27.88;14.55;;;;;;;22.51;88.81;100522.88;2071925;28;20053;-67
2022/08/19 02:15:10;;;;;;;28.70;14.52;;;;;;;22.51;88.86;100517.41;2079581;28;20060;-68
2022/08/19 02:16:16;;;;;;;25.98;14.05;;;;;;;22.52;89.00;100510.81;2079499;28;20397;-67
2022/08/19 02:17:20;;;;;;;22.88;13.63;;;;;;;22.52;88.99;100519.03;2071554;28;20525;-68
2022/08/19 02:18:27;;;;;;;29.30;12.45;;;;;;;22.53;89.09;100515.13;2063826;28;20529;-68
2022/08/19 02:19:32;;;;;;;27.42;12.25;;;;;;;22.54;89.05;100513.94;2056901;28;20034;-67
2022/08/19 02:20:38;;;;;;;29.45;13.38;;;;;;;22.54;89.15;100516.69;2069372;28;20038;-67
2022/08/19 02:21:43;;;;;;;29.73;12.13;;;;;;;22.54;89.34;100520.25;2056674;28;20038;-67
2022/08/19 02:22:45;;;;;;;24.35;11.85;;;;;;;22.55;89.35;100523.78;2056673;28;20034;-68
2022/08/19 02:23:53;;;;;;;23.80;12.55;;;;;;;22.54;89.54;100517.50;2071883;28;20030;-67
2022/08/19 02:24:57;;;;;;;30.70;12.68;;;;;;;22.53;89.76;100515.13;2080062;28;20052;-68
2022/08/19 02:25:59;;;;;;;23.90;12.25;;;;;;;22.56;89.75;100522.63;2079429;28;20056;-68
2022/08/19 02:27:01;;;;;;;22.50;11.25;;;;;;;22.55;90.00;100519.09;2075548;28;20041;-68
2022/08/19 02:28:11;;;;;;;27.20;12.55;;;;;;;22.56;90.10;100508.91;2064141;28;20038;-66
2022/08/19 02:29:13;;;;;;;25.52;12.10;;;;;;;22.54;90.10;100523.00;2065496;28;20501;-68
2022/08/19 02:30:18;;;;;;;26.52;12.20;;;;;;;22.55;90.10;100521.81;2071814;28;20426;-69
2022/08/19 02:31:22;;;;;;;19.75;11.77;;;;;;;22.54;90.05;100522.16;2080518;28;20481;-68
2022/08/19 02:32:27;;;;;;;24.90;12.02;;;;;;;22.55;89.92;100521.03;2071349;28;20049;-69
2022/08/19 02:33:31;;;;;;;23.73;12.50;;;;;;;22.55;89.90;100526.53;2063920;28;20046;-68
2022/08/19 02:34:36;;;;;;;26.30;11.57;;;;;;;22.54;90.20;100522.16;2064568;28;20422;-69
2022/08/19 02:35:42;;;;;;;27.10;12.63;;;;;;;22.55;90.13;100518.31;2080563;28;20041;-69
2022/08/19 02:36:51;;;;;;;32.38;13.52;;;;;;;22.54;90.13;100516.69;2088535;28;20480;-70
2022/08/19 02:39:20;;;;;;;27.02;12.93;;;;;;;22.47;90.03;100513.81;2079800;28;20581;-69
2022/08/19 02:40:23;;;;;;;23.92;13.55;;;;;;;22.44;89.99;100513.38;2071286;28;20635;-69
2022/08/19 02:41:30;;;;;;;25.88;12.27;;;;;;;22.44;89.98;100516.09;2062219;28;20038;-68
2022/08/19 02:42:32;;;;;;;24.08;12.27;;;;;;;22.44;89.98;100516.09;2058487;28;20057;-68
2022/08/19 02:43:36;;;;;;;25.02;12.25;;;;;;;22.44;90.02;100509.84;2071293;28;20494;-68
2022/08/19 02:44:43;;;;;;;19.27;11.93;;;;;;;22.40;89.99;100512.50;2072019;28;20046;-68
2022/08/19 02:45:49;;;;;;;20.88;12.68;;;;;;;22.36;90.27;100511.66;2081090;28;20413;-68
2022/08/19 02:46:57;;;;;;;27.23;12.25;;;;;;;22.37;90.36;100517.91;2079525;28;20060;-68
2022/08/19 02:48:04;;;;;;;18.73;12.68;;;;;;;22.34;90.43;100511.22;2088762;28;20052;-68
2022/08/19 02:49:16;;;;;;;20.08;12.57;;;;;;;22.36;90.59;100511.66;2087172;28;20484;-68
2022/08/19 02:50:21;;;;;;;25.08;12.07;;;;;;;22.32;90.68;100510.78;2073446;28;20041;-69
2022/08/19 02:51:29;;;;;;;19.98;12.00;;;;;;;22.28;90.80;100509.91;2071670;28;20874;-68
2022/08/19 02:52:34;;;;;;;23.58;11.65;;;;;;;22.25;91.09;100499.66;2079452;28;20064;-68
2022/08/19 02:53:38;;;;;;;25.83;11.60;;;;;;;22.24;91.25;100509.03;2079742;28;20044;-67
2022/08/19 02:54:41;;;;;;;22.60;12.15;;;;;;;22.25;91.35;100512.56;2078944;28;20099;-68
2022/08/19 02:55:45;;;;;;;23.88;11.88;;;;;;;22.25;91.45;100512.56;2096176;28;20037;-67
2022/08/19 02:56:52;;;;;;;18.17;11.68;;;;;;;22.23;91.62;100512.94;2078459;28;20041;-67
2022/08/19 02:58:00;;;;;;;25.80;12.00;;;;;;;22.23;91.68;100512.94;2072553;28;20034;-68
2022/08/19 02:59:08;;;;;;;19.27;12.13;;;;;;;22.23;91.86;100506.69;2071888;28;20537;-68
2022/08/19 03:00:12;;;;;;;19.25;12.13;;;;;;;22.20;91.84;100513.66;2065280;28;20034;-68
2022/08/19 03:01:40;;;;;;;21.60;12.32;;;;;;;22.26;91.88;100512.22;2071412;28;20040;-67
2022/08/19 03:02:42;;;;;;;17.02;12.13;;;;;;;22.27;91.96;100510.28;2072885;28;20113;-67
2022/08/19 03:03:47;;;;;;;21.13;13.00;;;;;;;22.28;91.94;100509.91;2071514;28;20029;-67
2022/08/19 03:04:50;;;;;;;26.48;12.63;;;;;;;22.31;92.02;100514.66;2079713;28;20041;-67
2022/08/19 03:06:12;;;;;;;24.38;12.70;;;;;;;22.29;91.93;100511.50;2074708;28;20421;-67
2022/08/19 03:07:15;;;;;;;19.40;11.55;;;;;;;22.29;91.91;100517.00;2069880;28;20490;-67
2022/08/19 03:08:18;;;;;;;20.60;11.85;;;;;;;22.28;91.84;100515.38;2074831;28;20037;-67
2022/08/19 03:09:20;;;;;;;20.88;12.20;;;;;;;22.31;91.86;100519.34;2071386;28;20042;-67
2022/08/19 03:10:24;;;;;;;48.40;23.73;;;;;;;22.29;91.73;100514.25;2071568;28;20489;-67
2022/08/19 03:11:32;;;;;;;21.15;13.02;;;;;;;22.26;91.62;100517.72;2071729;28;20040;-67
2022/08/19 03:12:38;;;;;;;30.90;15.95;;;;;;;22.27;91.55;100513.03;2072287;28;20049;-67
2022/08/19 03:13:43;;;;;;;26.33;14.52;;;;;;;22.27;91.45;100513.03;2080696;28;20072;-67
2022/08/19 03:14:50;;;;;;;26.15;13.50;;;;;;;22.27;91.54;100511.06;2071398;28;20426;-67
2022/08/19 03:15:59;;;;;;;18.70;13.35;;;;;;;22.30;91.61;100513.09;2065389;28;20042;-67
2022/08/19 03:17:01;;;;;;;28.15;12.68;;;;;;;22.32;91.83;100509.97;2080326;28;20059;-67
2022/08/19 03:18:05;;;;;;;24.10;12.93;;;;;;;22.32;92.07;100513.53;2071343;28;20044;-67
2022/08/19 03:19:07;;;;;;;21.02;12.95;;;;;;;22.31;92.19;100509.19;2063346;28;20046;-68
2022/08/19 03:20:13;;;;;;;24.30;13.02;;;;;;;22.32;92.25;100507.25;2079793;28;20041;-67
2022/08/19 03:21:22;;;;;;;22.48;12.73;;;;;;;22.31;92.33;100514.66;2086310;28;20049;-67
2022/08/19 03:22:25;;;;;;;23.58;12.60;;;;;;;22.32;92.27;100515.47;2072437;28;20386;-68
2022/08/19 03:23:27;;;;;;;20.85;12.85;;;;;;;22.29;92.23;100511.50;2071605;28;20046;-67
2022/08/19 03:24:31;;;;;;;22.88;12.35;;;;;;;22.29;92.11;100513.44;2079748;28;20392;-67
2022/08/19 03:25:40;;;;;;;20.90;13.30;;;;;;;22.25;92.01;100513.34;2086541;28;20060;-68
2022/08/19 03:26:47;;;;;;;21.95;12.20;;;;;;;22.26;91.96;100516.88;2086480;28;20040;-67
2022/08/19 03:27:59;;;;;;;18.15;11.60;;;;;;;22.22;91.94;100514.06;2071029;28;20458;-67
2022/08/19 03:29:05;;;;;;;26.27;12.38;;;;;;;22.20;91.82;100508.19;2077612;28;20041;-67
2022/08/19 03:30:13;;;;;;;20.73;12.18;;;;;;;22.18;91.84;100510.47;2087203;28;20424;-67
2022/08/19 03:31:17;;;;;;;23.70;11.70;;;;;;;22.17;92.02;100511.63;2079555;28;20041;-67
2022/08/19 03:32:21;;;;;;;19.50;11.98;;;;;;;22.15;92.02;100509.22;2071259;28;20045;-67
2022/08/19 03:33:24;;;;;;;18.20;11.75;;;;;;;22.15;92.03;100509.22;2063727;28;20053;-67
2022/08/19 03:34:28;;;;;;;26.83;13.38;;;;;;;22.15;91.92;100511.94;2063306;28;20058;-67
2022/08/19 03:35:36;;;;;;;23.90;12.38;;;;;;;22.14;91.90;100513.09;2064805;28;20065;-66
2022/08/19 03:36:38;;;;;;;21.50;12.25;;;;;;;22.11;91.85;100508.34;2070457;28;20042;-67
2022/08/19 03:37:40;;;;;;;20.92;12.18;;;;;;;22.13;91.74;100519.75;2056527;28;20035;-67
2022/08/19 03:38:44;;;;;;;16.33;11.80;;;;;;;22.15;91.73;100511.16;2077387;28;20044;-67
2022/08/19 03:39:47;;;;;;;22.00;11.75;;;;;;;22.16;91.63;100523.72;2072012;28;20437;-67
2022/08/19 03:40:54;;;;;;;24.70;12.15;;;;;;;22.17;91.68;100519.84;2071350;28;20728;-68
2022/08/19 03:42:02;;;;;;;25.17;12.48;;;;;;;22.16;91.60;100519.06;2071239;28;20041;-67
2022/08/19 03:43:05;;;;;;;19.75;12.25;;;;;;;22.19;91.55;100520.28;2070879;28;20069;-67
2022/08/19 03:44:10;;;;;;;25.10;11.60;;;;;;;22.18;91.54;100511.25;2071314;28;20034;-66
2022/08/19 03:45:17;;;;;;;22.30;12.10;;;;;;;22.19;91.48;100523.00;2071147;28;20061;-67
2022/08/19 03:46:31;;;;;;;;;;;;;;;22.23;91.44;100512.94;2071726;28;20276;-67
2022/08/19 03:47:33;;;;;;;18.50;11.57;;;;;;;22.22;91.39;100505.88;2081172;28;19913;-67
2022/08/19 03:48:40;;;;;;;19.83;11.73;;;;;;;22.28;91.08;100511.84;2078446;28;20045;-67
2022/08/19 03:49:44;;;;;;;20.00;12.35;;;;;;;22.32;90.89;100505.31;2072053;28;20127;-68
2022/08/19 03:50:49;;;;;;;21.05;12.30;;;;;;;22.36;90.85;100505.38;2071039;28;20421;-67
2022/08/19 03:51:57;;;;;;;20.52;12.00;;;;;;;22.41;90.68;100508.66;2071819;28;20038;-68
2022/08/19 03:53:06;;;;;;;20.00;12.05;;;;;;;22.44;90.70;100507.91;2077808;28;20060;-67
2022/08/19 03:54:16;;;;;;;25.27;12.55;;;;;;;22.49;90.40;100508.78;2070990;28;20042;-67
2022/08/19 03:55:23;;;;;;;16.00;11.75;;;;;;;22.49;90.23;100508.78;2072283;28;20030;-67
2022/08/19 03:56:29;;;;;;;28.40;12.27;;;;;;;22.53;90.01;100515.13;2078275;28;20056;-67
2022/08/19 03:57:34;;;;;;;22.00;12.20;;;;;;;22.58;90.10;100510.16;2079325;28;20748;-67
2022/08/19 03:58:40;;;;;;;25.02;12.35;;;;;;;22.59;89.88;100513.69;2080163;28;20068;-68
2022/08/19 03:59:44;;;;;;;20.15;12.57;;;;;;;22.63;89.79;100515.31;2063083;28;20030;-68
2022/08/19 04:00:46;;;;;;;22.25;12.70;;;;;;;22.68;89.70;100517.00;2055992;28;20031;-67
2022/08/19 04:01:48;;;;;;;17.45;11.40;;;;;;;22.70;89.52;100519.34;2063320;28;20031;-67
2022/08/19 04:02:55;;;;;;;23.58;12.20;;;;;;;22.75;89.50;100522.59;2059838;28;20046;-68
2022/08/19 04:03:59;;;;;;;26.13;12.40;;;;;;;22.75;89.57;100522.59;2064651;28;20042;-67
2022/08/19 04:05:07;;;;;;;20.05;12.30;;;;;;;22.80;89.36;100516.84;2070647;28;20037;-67
2022/08/19 04:06:34;;;;;;;23.63;12.80;;;;;;;22.87;88.90;100527.94;2064445;28;20042;-66
2022/08/19 04:07:38;;;;;;;27.13;12.32;;;;;;;22.91;88.89;100531.53;2064077;28;20125;-67
2022/08/19 04:08:42;;;;;;;31.08;12.10;;;;;;;22.98;88.71;100524.63;2063997;28;20030;-67
2022/08/19 04:09:46;;;;;;;23.92;12.05;;;;;;;23.03;88.56;100521.59;2079945;28;20448;-67
2022/08/19 04:10:54;;;;;;;21.85;12.02;;;;;;;23.06;88.35;100523.63;2086160;28;20067;-68
2022/08/19 04:11:59;;;;;;;24.15;11.70;;;;;;;23.06;88.37;100520.88;2079873;28;20063;-67
2022/08/19 04:13:05;;;;;;;20.83;11.32;;;;;;;23.11;88.18;100523.31;2063475;28;20081;-67
2022/08/19 04:14:09;;;;;;;22.70;12.70;;;;;;;23.17;88.18;100519.13;2057494;28;20492;-67
2022/08/19 04:15:11;;;;;;;25.75;12.40;;;;;;;23.20;88.17;100520.31;2073274;28;20029;-66
2022/08/19 04:16:17;;;;;;;24.02;13.68;;;;;;;23.24;88.49;100532.97;2081374;28;20103;-66
2022/08/19 04:17:24;;;;;;;21.08;13.10;;;;;;;23.29;88.51;100524.41;2064651;28;20038;-67
2022/08/19 04:18:29;;;;;;;20.50;12.52;;;;;;;23.34;88.58;100531.56;2066636;28;20054;-66
2022/08/19 04:19:32;;;;;;;23.67;13.07;;;;;;;23.37;88.89;100533.56;2080859;28;20044;-67
2022/08/19 04:20:45;;;;;;;22.13;13.43;;;;;;;23.36;88.30;100530.03;2081110;28;20033;-67
2022/08/19 04:21:49;;;;;;;25.58;12.32;;;;;;;23.41;87.64;100530.88;2087716;28;20025;-67
2022/08/19 04:22:54;;;;;;;21.30;11.88;;;;;;;23.47;87.18;100530.22;2080836;28;20044;-67
2022/08/19 04:23:57;;;;;;;22.75;12.90;;;;;;;23.54;86.91;100535.81;2072719;28;20486;-67
2022/08/19 04:24:59;;;;;;;22.48;11.93;;;;;;;23.59;86.69;100526.50;2072957;28;20042;-67
2022/08/19 04:26:01;;;;;;;17.48;11.65;;;;;;;23.57;86.58;100526.84;2072743;28;20033;-67
2022/08/19 04:27:05;;;;;;;22.50;11.70;;;;;;;23.60;86.45;100528.06;2080768;28;20041;-66
2022/08/19 04:28:11;;;;;;;19.25;12.00;;;;;;;23.66;86.18;100525.81;2080720;28;20041;-67
2022/08/19 04:29:24;;;;;;;16.15;11.40;;;;;;;23.71;86.55;100529.06;2080356;28;20049;-67
2022/08/19 04:30:29;;;;;;;24.35;12.80;;;;;;;23.75;86.87;100529.91;2073062;28;20037;-67
2022/08/19 04:31:35;;;;;;;25.15;13.10;;;;;;;23.77;87.12;100526.78;2073197;28;20038;-67
2022/08/19 04:32:38;;;;;;;20.90;12.98;;;;;;;23.81;87.53;100522.94;2072624;28;20041;-68
2022/08/19 04:33:40;;;;;;;26.60;13.02;;;;;;;23.88;87.29;100529.72;2069400;28;20046;-68
2022/08/19 04:34:49;;;;;;;22.77;12.95;;;;;;;23.92;87.19;100517.59;2082463;28;20041;-67
2022/08/19 04:35:55;;;;;;;25.67;13.52;;;;;;;24.00;87.21;100524.78;2087224;28;20037;-67
2022/08/19 04:37:00;;;;;;;22.52;12.68;;;;;;;24.08;87.01;100525.66;2083881;28;20044;-67
2022/08/19 04:38:04;;;;;;;20.33;12.07;;;;;;;24.11;86.97;100524.16;2085803;28;20036;-66
2022/08/19 04:39:16;;;;;;;18.90;11.73;;;;;;;24.11;86.48;100526.88;2080344;28;20048;-67
2022/08/19 04:43:04;;;;;;;19.52;10.70;;;;;;;24.15;85.22;100517.56;2088615;28;20040;-68
2022/08/19 04:44:09;;;;;;;20.05;10.60;;;;;;;24.20;85.13;100513.69;2079300;28;20520;-67
2022/08/19 04:45:15;;;;;;;15.77;11.05;;;;;;;24.21;84.67;100518.81;2073321;28;20045;-68
2022/08/19 04:46:18;;;;;;;27.05;10.98;;;;;;;24.31;84.11;100522.88;2080462;28;20037;-68
2022/08/19 04:47:25;;;;;;;19.25;11.95;;;;;;;24.43;83.86;100525.41;2089089;28;20044;-68
2022/08/19 04:48:30;;;;;;;21.77;12.35;;;;;;;24.55;83.61;100515.31;2087325;28;20036;-68
2022/08/19 04:49:36;;;;;;;22.10;11.88;;;;;;;24.64;82.68;100524.88;2073123;28;20080;-70
2022/08/19 04:50:41;;;;;;;21.13;11.57;;;;;;;24.74;82.77;100521.44;2071826;28;20390;-67
2022/08/19 04:51:49;;;;;;;23.05;12.60;;;;;;;24.82;82.34;100519.56;2071365;28;20485;-68
2022/08/19 04:52:52;;;;;;;21.20;13.60;;;;;;;24.93;81.79;100520.47;2071394;28;20038;-67
2022/08/19 04:53:56;;;;;;;18.42;11.43;;;;;;;25.02;81.38;100522.91;2071405;28;20513;-67
2022/08/19 04:55:00;;;;;;;17.27;12.10;;;;;;;25.12;80.84;100522.25;2087610;28;20041;-67
2022/08/19 04:56:12;;;;;;;21.38;12.18;;;;;;;25.26;80.28;100523.59;2082808;28;20048;-68
2022/08/19 04:57:17;;;;;;;20.55;12.68;;;;;;;25.31;78.78;100528.72;2071129;28;20054;-67
2022/08/19 04:58:22;;;;;;;19.15;12.20;;;;;;;25.31;78.04;100523.22;2072572;28;20140;-68
2022/08/19 04:59:25;;;;;;;23.80;12.20;;;;;;;25.44;78.07;100527.25;2069723;28;20042;-70
2022/08/19 05:00:30;;;;;;;18.73;11.40;;;;;;;25.55;77.76;100522.66;2055822;28;20054;-69
2022/08/19 05:01:33;;;;;;;21.55;11.85;;;;;;;25.62;76.71;100522.69;2063752;28;20053;-69
2022/08/19 05:02:35;;;;;;;26.67;12.43;;;;;;;25.71;76.42;100524.34;2071475;28;20403;-69
2022/08/19 05:03:39;;;;;;;21.40;11.75;;;;;;;25.79;75.20;100518.50;2064544;28;20441;-69